Date,TemperatureHighF,TemperatureAvgF,TemperatureLowF,DewpointHighF,DewpointAvgF,DewpointLowF,HumidityHigh,HumidityAvg,HumidityLow,PressureMaxIn,PressureMinIn,WindSpeedMaxMPH,WindSpeedAvgMPH,GustSpeedMaxMPH,PrecipitationSumIn
2013-4-1,48.3,39.4,29.7,31.2,22.2,14.6,74,52,31,30.26,29.95,13,9,18,0.00
2013-4-2,49.2,37.0,23.1,23.2,17.2,10.1,80,48,23,30.39,30.26,11,5,15,0.00
2013-4-3,50.8,37.8,23.3,24.1,19.1,16.3,79,50,27,30.50,30.37,8,3,13,0.00
2013-4-4,61.6,45.4,27.7,25.0,21.1,16.5,77,42,18,30.37,30.06,8,2,11,0.00
2013-4-5,61.0,47.1,33.9,37.9,27.6,19.7,81,50,25,30.21,30.07,8,5,12,0.00
2013-4-6,72.8,56.4,39.0,39.4,33.1,24.0,64,43,27,30.17,29.75,20,9,26,0.00
2013-4-7,76.1,62.5,49.1,43.9,40.7,36.8,73,48,25,29.98,29.77,28,7,31,0.00
2013-4-8,76.6,64.0,55.8,58.6,54.6,43.5,88,73,51,29.96,29.78,24,10,28,0.07
2013-4-9,80.3,68.2,58.1,61.8,57.1,52.6,83,69,48,29.97,29.87,29,9,38,0.00
2013-4-10,73.7,59.3,46.0,65.2,54.0,42.7,92,83,55,29.90,29.67,15,6,24,1.29
2013-4-11,59.9,49.8,39.8,57.9,46.5,33.5,93,89,76,29.85,29.63,20,10,22,0.24
2013-4-12,44.7,40.0,37.2,37.2,34.0,30.4,84,79,73,30.00,29.71,24,16,28,0.00
2013-4-13,50.4,43.6,38.8,38.0,34.9,29.6,86,72,57,30.09,29.99,19,10,22,0.00
2013-4-14,73.7,57.3,40.6,50.6,43.4,36.4,86,63,34,30.05,29.75,13,7,20,0.04
2013-4-15,65.4,58.2,48.9,59.4,52.1,45.1,90,80,61,29.99,29.81,12,7,20,0.17
2013-4-16,54.8,48.0,44.3,46.0,43.5,39.5,91,85,70,30.26,29.93,11,6,13,1.22
2013-4-17,73.0,54.4,44.8,67.2,49.6,38.8,92,84,67,30.25,29.80,16,7,19,0.75
2013-4-18,68.9,60.1,42.5,63.8,56.7,38.0,93,89,80,29.80,29.58,26,10,31,2.59
2013-4-19,42.4,38.8,36.9,37.9,32.1,28.7,85,77,68,30.08,29.66,28,19,33,0.01
2013-4-20,51.6,41.1,31.2,33.8,28.9,25.5,84,64,40,30.47,30.08,11,4,14,0.00
2013-4-21,55.1,44.3,32.8,37.3,31.6,26.5,86,63,39,30.56,30.38,9,4,15,0.00
2013-4-22,70.1,55.2,37.4,44.5,37.2,30.3,76,54,28,30.38,30.10,6,2,9,0.00
2013-4-23,60.6,53.7,42.2,53.9,47.5,39.2,90,80,66,30.11,29.86,21,6,25,0.58
2013-4-24,51.2,42.0,36.5,39.0,35.1,30.6,90,78,48,30.27,29.95,15,8,20,0.18
2013-4-25,55.8,46.3,36.4,38.1,32.1,27.8,84,60,36,30.40,30.23,19,9,23,0.00
2013-4-26,65.5,52.2,37.3,46.4,39.9,31.9,82,65,41,30.46,30.34,15,4,16,0.00
2013-4-27,64.9,53.9,43.8,50.9,46.0,40.1,91,77,43,30.36,29.99,7,2,13,0.30
2013-4-28,60.4,56.4,53.4,55.0,52.9,50.8,92,88,79,29.99,29.90,11,3,12,0.12
2013-4-29,73.2,61.2,45.8,57.8,52.3,43.0,92,74,55,30.02,29.86,12,6,14,0.00
2013-4-30,84.0,69.4,55.3,63.2,56.7,50.1,83,66,44,30.01,29.89,9,6,18,0.00